Disclaimer

Please do not use the information listed here in-flight or in-navigation, as they are not provided to us by the airports but are provided by volunteers, so they might be outdated.

Search


Regions


Airport information page

Radio informations:
Tower (TWR) - 118.1 MHz
Ground (GND) - 121.9 MHz
Approach (APP) - 122.7 MHz
RDO - 2872 MHz

Airport informations:
Latitude: 21° 05' 31.89" N
Longitude: 079° 02' 49.86" E
Elevation: 1033 feet - 315 meters
Operating hours: Remarks
Operating agency: Civil government, landing fees and diplomatic clearance may be required
Timezone: UTC+5:30
Fuel: 100/130 octane gasoline, leaded, MIL-L-5572F (GREEN)

Jet fuel avaiable but type is unknown.

Runway information:
09/27 - 6358 x 150 feet< - >1938 x 46 meters
14/32 - 10500 x 150 feet< - >3200 x 46 meters

Recent METARs:
VANP 211130Z 07003KT 4000 HZ NSC 29/15 Q1014 NOSIG
VANP 211130Z 07003KT 4000 HZ NSC 29/15 Q1014 NOSIG
VANP 211200Z 07003KT 4000 HZ NSC 28/14 Q1014 NOSIG

Airport on the map: